sensor_id;sensor_type;location;lat;lon;timestamp;temperature;humidity
67131;HTU21D;54051;53.464;49.532;2023-03-22T00:00:08;6.05;73.03
67131;HTU21D;54051;53.464;49.532;2023-03-22T00:02:38;6.00;73.46
67131;HTU21D;54051;53.464;49.532;2023-03-22T00:05:05;6.00;73.51
67131;HTU21D;54051;53.464;49.532;2023-03-22T00:07:31;5.97;73.69
67131;HTU21D;54051;53.464;49.532;2023-03-22T00:09:58;5.99;73.65
67131;HTU21D;54051;53.464;49.532;2023-03-22T00:12:24;5.97;73.71
67131;HTU21D;54051;53.464;49.532;2023-03-22T00:14:50;5.97;73.70
67131;HTU21D;54051;53.464;49.532;2023-03-22T00:17:17;5.98;73.73
67131;HTU21D;54051;53.464;49.532;2023-03-22T00:19:43;5.99;73.73
67131;HTU21D;54051;53.464;49.532;2023-03-22T00:22:09;6.01;73.59
67131;HTU21D;54051;53.464;49.532;2023-03-22T00:24:36;6.05;73.56
67131;HTU21D;54051;53.464;49.532;2023-03-22T00:27:03;6.05;73.48
67131;HTU21D;54051;53.464;49.532;2023-03-22T00:29:29;5.99;73.64
67131;HTU21D;54051;53.464;49.532;2023-03-22T00:32:15;5.93;73.94
67131;HTU21D;54051;53.464;49.532;2023-03-22T00:34:41;5.91;74.09
67131;HTU21D;54051;53.464;49.532;2023-03-22T00:37:07;5.91;74.15
67131;HTU21D;54051;53.464;49.532;2023-03-22T00:39:34;5.87;74.04
67131;HTU21D;54051;53.464;49.532;2023-03-22T00:42:02;5.87;74.08
67131;HTU21D;54051;53.464;49.532;2023-03-22T00:44:28;5.87;74.00
67131;HTU21D;54051;53.464;49.532;2023-03-22T00:46:54;5.90;73.90
67131;HTU21D;54051;53.464;49.532;2023-03-22T00:49:20;5.93;73.63
67131;HTU21D;54051;53.464;49.532;2023-03-22T00:51:46;5.93;73.44
67131;HTU21D;54051;53.464;49.532;2023-03-22T00:54:13;5.91;73.50
67131;HTU21D;54051;53.464;49.532;2023-03-22T00:56:39;5.90;73.36
67131;HTU21D;54051;53.464;49.532;2023-03-22T00:59:05;5.86;73.69
67131;HTU21D;54051;53.464;49.532;2023-03-22T01:01:31;5.85;73.82
67131;HTU21D;54051;53.464;49.532;2023-03-22T01:03:58;5.85;73.94
67131;HTU21D;54051;53.464;49.532;2023-03-22T01:06:24;5.89;73.75
67131;HTU21D;54051;53.464;49.532;2023-03-22T01:08:50;5.89;73.90
67131;HTU21D;54051;53.464;49.532;2023-03-22T01:11:20;5.95;73.70
67131;HTU21D;54051;53.464;49.532;2023-03-22T01:13:46;6.00;73.46
67131;HTU21D;54051;53.464;49.532;2023-03-22T01:16:13;6.07;73.24
67131;HTU21D;54051;53.464;49.532;2023-03-22T01:18:39;6.12;73.04
67131;HTU21D;54051;53.464;49.532;2023-03-22T01:21:06;6.06;73.20
67131;HTU21D;54051;53.464;49.532;2023-03-22T01:23:32;6.07;73.38
67131;HTU21D;54051;53.464;49.532;2023-03-22T01:25:59;6.13;73.25
67131;HTU21D;54051;53.464;49.532;2023-03-22T01:28:26;6.17;73.02
67131;HTU21D;54051;53.464;49.532;2023-03-22T01:30:53;6.21;72.93
67131;HTU21D;54051;53.464;49.532;2023-03-22T01:33:20;6.26;72.77
67131;HTU21D;54051;53.464;49.532;2023-03-22T01:35:46;6.26;72.58
67131;HTU21D;54051;53.464;49.532;2023-03-22T01:38:12;6.26;72.47
67131;HTU21D;54051;53.464;49.532;2023-03-22T01:40:38;6.15;72.84
67131;HTU21D;54051;53.464;49.532;2023-03-22T01:43:13;6.10;73.19
67131;HTU21D;54051;53.464;49.532;2023-03-22T01:45:48;5.94;73.18
67131;HTU21D;54051;53.464;49.532;2023-03-22T01:48:39;5.78;74.09
67131;HTU21D;54051;53.464;49.532;2023-03-22T01:51:20;5.67;74.38
67131;HTU21D;54051;53.464;49.532;2023-03-22T01:53:48;5.63;74.64
67131;HTU21D;54051;53.464;49.532;2023-03-22T01:56:16;5.59;75.30
67131;HTU21D;54051;53.464;49.532;2023-03-22T01:58:45;5.71;74.86
67131;HTU21D;54051;53.464;49.532;2023-03-22T02:01:11;5.82;74.53
67131;HTU21D;54051;53.464;49.532;2023-03-22T02:04:04;5.92;74.13
67131;HTU21D;54051;53.464;49.532;2023-03-22T02:06:34;5.99;73.82
67131;HTU21D;54051;53.464;49.532;2023-03-22T02:09:08;6.07;73.54
67131;HTU21D;54051;53.464;49.532;2023-03-22T02:11:42;6.13;73.32
67131;HTU21D;54051;53.464;49.532;2023-03-22T02:34:12;6.19;73.14
67131;HTU21D;54051;53.464;49.532;2023-03-22T02:44:44;6.17;73.00
67131;HTU21D;54051;53.464;49.532;2023-03-22T02:47:23;6.11;72.59
67131;HTU21D;54051;53.464;49.532;2023-03-22T02:50:00;5.87;73.32
67131;HTU21D;54051;53.464;49.532;2023-03-22T02:58:25;5.89;74.18
67131;HTU21D;54051;53.464;49.532;2023-03-22T03:00:59;5.94;73.86
67131;HTU21D;54051;53.464;49.532;2023-03-22T03:03:27;5.93;73.83
67131;HTU21D;54051;53.464;49.532;2023-03-22T03:06:01;5.95;73.72
67131;HTU21D;54051;53.464;49.532;2023-03-22T03:08:29;5.96;73.59
67131;HTU21D;54051;53.464;49.532;2023-03-22T03:10:56;5.97;73.62
67131;HTU21D;54051;53.464;49.532;2023-03-22T03:13:22;6.02;73.46
67131;HTU21D;54051;53.464;49.532;2023-03-22T03:15:54;6.12;73.25
67131;HTU21D;54051;53.464;49.532;2023-03-22T03:21:20;6.12;72.56
67131;HTU21D;54051;53.464;49.532;2023-03-22T03:32:21;6.12;73.19
67131;HTU21D;54051;53.464;49.532;2023-03-22T03:37:41;6.16;73.23
67131;HTU21D;54051;53.464;49.532;2023-03-22T03:40:15;6.17;73.18
67131;HTU21D;54051;53.464;49.532;2023-03-22T03:42:47;6.22;73.26
67131;HTU21D;54051;53.464;49.532;2023-03-22T03:45:16;6.33;72.97
67131;HTU21D;54051;53.464;49.532;2023-03-22T03:47:45;6.38;72.31
67131;HTU21D;54051;53.464;49.532;2023-03-22T03:50:15;6.44;72.21
67131;HTU21D;54051;53.464;49.532;2023-03-22T03:52:41;6.44;72.22
67131;HTU21D;54051;53.464;49.532;2023-03-22T03:55:08;6.50;72.09
67131;HTU21D;54051;53.464;49.532;2023-03-22T03:57:34;6.66;71.93
67131;HTU21D;54051;53.464;49.532;2023-03-22T04:00:01;7.08;70.24
67131;HTU21D;54051;53.464;49.532;2023-03-22T04:02:28;7.38;68.55
67131;HTU21D;54051;53.464;49.532;2023-03-22T04:04:55;7.75;66.91
67131;HTU21D;54051;53.464;49.532;2023-03-22T04:07:21;8.09;66.12
67131;HTU21D;54051;53.464;49.532;2023-03-22T04:09:47;8.33;65.44
67131;HTU21D;54051;53.464;49.532;2023-03-22T04:12:13;8.87;63.31
67131;HTU21D;54051;53.464;49.532;2023-03-22T04:14:40;9.01;62.95
67131;HTU21D;54051;53.464;49.532;2023-03-22T04:17:08;8.93;63.20
67131;HTU21D;54051;53.464;49.532;2023-03-22T04:19:34;8.91;62.89
67131;HTU21D;54051;53.464;49.532;2023-03-22T04:22:00;8.67;63.36
67131;HTU21D;54051;53.464;49.532;2023-03-22T04:24:26;8.28;64.79
67131;HTU21D;54051;53.464;49.532;2023-03-22T04:26:53;8.02;65.72
67131;HTU21D;54051;53.464;49.532;2023-03-22T04:29:19;8.12;64.94
67131;HTU21D;54051;53.464;49.532;2023-03-22T04:31:46;7.99;65.44
67131;HTU21D;54051;53.464;49.532;2023-03-22T04:34:13;8.04;65.05
67131;HTU21D;54051;53.464;49.532;2023-03-22T04:36:39;8.07;64.89
67131;HTU21D;54051;53.464;49.532;2023-03-22T04:39:08;8.52;63.80
67131;HTU21D;54051;53.464;49.532;2023-03-22T04:41:36;9.50;60.06
67131;HTU21D;54051;53.464;49.532;2023-03-22T04:44:06;9.41;59.74
67131;HTU21D;54051;53.464;49.532;2023-03-22T04:46:34;9.17;60.62
67131;HTU21D;54051;53.464;49.532;2023-03-22T04:49:02;9.86;59.19
67131;HTU21D;54051;53.464;49.532;2023-03-22T04:51:28;11.52;53.43
67131;HTU21D;54051;53.464;49.532;2023-03-22T04:53:55;12.50;50.47
67131;HTU21D;54051;53.464;49.532;2023-03-22T04:56:21;12.47;49.75
67131;HTU21D;54051;53.464;49.532;2023-03-22T04:58:47;11.96;51.43
67131;HTU21D;54051;53.464;49.532;2023-03-22T05:01:16;11.48;52.62
67131;HTU21D;54051;53.464;49.532;2023-03-22T05:03:43;10.78;54.46
67131;HTU21D;54051;53.464;49.532;2023-03-22T05:06:13;10.13;56.43
67131;HTU21D;54051;53.464;49.532;2023-03-22T05:08:39;9.86;57.45
67131;HTU21D;54051;53.464;49.532;2023-03-22T05:11:10;10.18;56.93
67131;HTU21D;54051;53.464;49.532;2023-03-22T05:13:37;10.49;55.38
67131;HTU21D;54051;53.464;49.532;2023-03-22T05:16:05;10.88;54.47
67131;HTU21D;54051;53.464;49.532;2023-03-22T05:18:31;11.61;52.25
67131;HTU21D;54051;53.464;49.532;2023-03-22T05:20:59;12.72;48.64
67131;HTU21D;54051;53.464;49.532;2023-03-22T05:23:28;14.37;44.51
67131;HTU21D;54051;53.464;49.532;2023-03-22T05:25:55;15.51;40.87
67131;HTU21D;54051;53.464;49.532;2023-03-22T05:28:23;16.46;38.59
67131;HTU21D;54051;53.464;49.532;2023-03-22T05:30:51;18.49;34.63
67131;HTU21D;54051;53.464;49.532;2023-03-22T05:33:18;20.11;31.50
67131;HTU21D;54051;53.464;49.532;2023-03-22T05:35:48;20.75;29.14
67131;HTU21D;54051;53.464;49.532;2023-03-22T05:38:17;20.61;29.43
67131;HTU21D;54051;53.464;49.532;2023-03-22T05:40:43;20.85;28.92
67131;HTU21D;54051;53.464;49.532;2023-03-22T05:43:10;21.43;28.29
67131;HTU21D;54051;53.464;49.532;2023-03-22T05:45:37;21.64;27.20
67131;HTU21D;54051;53.464;49.532;2023-03-22T05:48:04;20.57;29.52
67131;HTU21D;54051;53.464;49.532;2023-03-22T05:50:30;19.68;31.07
67131;HTU21D;54051;53.464;49.532;2023-03-22T05:52:57;19.17;32.30
67131;HTU21D;54051;53.464;49.532;2023-03-22T05:55:25;21.09;29.31
67131;HTU21D;54051;53.464;49.532;2023-03-22T05:57:51;23.52;24.43
67131;HTU21D;54051;53.464;49.532;2023-03-22T06:00:20;23.77;23.72
67131;HTU21D;54051;53.464;49.532;2023-03-22T06:02:47;23.59;23.86
67131;HTU21D;54051;53.464;49.532;2023-03-22T06:05:15;24.12;23.16
67131;HTU21D;54051;53.464;49.532;2023-03-22T06:07:42;23.91;23.42
67131;HTU21D;54051;53.464;49.532;2023-03-22T06:10:11;24.02;23.58
67131;HTU21D;54051;53.464;49.532;2023-03-22T06:12:38;23.83;23.17
67131;HTU21D;54051;53.464;49.532;2023-03-22T06:15:04;22.62;25.42
67131;HTU21D;54051;53.464;49.532;2023-03-22T06:17:31;21.51;26.97
67131;HTU21D;54051;53.464;49.532;2023-03-22T06:19:57;20.31;29.42
67131;HTU21D;54051;53.464;49.532;2023-03-22T06:22:24;19.77;30.45
67131;HTU21D;54051;53.464;49.532;2023-03-22T06:24:50;20.44;29.68
67131;HTU21D;54051;53.464;49.532;2023-03-22T06:27:16;21.47;27.69
67131;HTU21D;54051;53.464;49.532;2023-03-22T06:29:43;22.98;25.26
67131;HTU21D;54051;53.464;49.532;2023-03-22T06:32:14;23.32;24.07
67131;HTU21D;54051;53.464;49.532;2023-03-22T06:34:40;21.72;26.36
67131;HTU21D;54051;53.464;49.532;2023-03-22T06:37:06;20.41;29.28
67131;HTU21D;54051;53.464;49.532;2023-03-22T06:39:33;19.36;30.80
67131;HTU21D;54051;53.464;49.532;2023-03-22T06:41:59;18.88;31.86
67131;HTU21D;54051;53.464;49.532;2023-03-22T06:44:25;18.47;32.85
67131;HTU21D;54051;53.464;49.532;2023-03-22T06:46:51;18.86;32.06
67131;HTU21D;54051;53.464;49.532;2023-03-22T06:49:17;19.83;29.93
67131;HTU21D;54051;53.464;49.532;2023-03-22T06:51:44;21.58;26.78
67131;HTU21D;54051;53.464;49.532;2023-03-22T06:54:10;22.98;24.42
67131;HTU21D;54051;53.464;49.532;2023-03-22T06:56:38;21.92;26.04
67131;HTU21D;54051;53.464;49.532;2023-03-22T06:59:04;19.92;29.44
67131;HTU21D;54051;53.464;49.532;2023-03-22T07:01:30;17.20;35.05
67131;HTU21D;54051;53.464;49.532;2023-03-22T07:03:56;15.80;38.54
67131;HTU21D;54051;53.464;49.532;2023-03-22T07:06:22;14.93;40.50
67131;HTU21D;54051;53.464;49.532;2023-03-22T07:08:48;14.09;42.35
67131;HTU21D;54051;53.464;49.532;2023-03-22T07:11:15;13.39;44.58
67131;HTU21D;54051;53.464;49.532;2023-03-22T07:13:41;13.31;44.95
67131;HTU21D;54051;53.464;49.532;2023-03-22T07:16:07;12.62;46.54
67131;HTU21D;54051;53.464;49.532;2023-03-22T07:18:34;11.97;48.75
67131;HTU21D;54051;53.464;49.532;2023-03-22T07:21:00;11.87;49.42
67131;HTU21D;54051;53.464;49.532;2023-03-22T07:23:26;12.90;47.02
67131;HTU21D;54051;53.464;49.532;2023-03-22T07:25:53;13.78;44.00
67131;HTU21D;54051;53.464;49.532;2023-03-22T07:28:21;14.51;41.78
67131;HTU21D;54051;53.464;49.532;2023-03-22T07:30:47;14.58;41.68
67131;HTU21D;54051;53.464;49.532;2023-03-22T07:33:13;15.56;40.14
67131;HTU21D;54051;53.464;49.532;2023-03-22T07:35:40;18.87;32.30
67131;HTU21D;54051;53.464;49.532;2023-03-22T07:38:06;17.56;34.18
67131;HTU21D;54051;53.464;49.532;2023-03-22T07:40:32;16.30;37.01
67131;HTU21D;54051;53.464;49.532;2023-03-22T07:42:58;15.23;40.02
67131;HTU21D;54051;53.464;49.532;2023-03-22T07:45:25;14.44;41.87
67131;HTU21D;54051;53.464;49.532;2023-03-22T07:47:51;13.68;44.00
67131;HTU21D;54051;53.464;49.532;2023-03-22T07:50:18;13.82;43.96
67131;HTU21D;54051;53.464;49.532;2023-03-22T07:52:44;13.82;43.77
67131;HTU21D;54051;53.464;49.532;2023-03-22T07:55:12;13.35;45.14
67131;HTU21D;54051;53.464;49.532;2023-03-22T07:57:40;13.18;45.86
67131;HTU21D;54051;53.464;49.532;2023-03-22T08:00:07;13.59;45.51
67131;HTU21D;54051;53.464;49.532;2023-03-22T08:02:37;15.49;40.16
67131;HTU21D;54051;53.464;49.532;2023-03-22T08:05:04;19.52;31.09
67131;HTU21D;54051;53.464;49.532;2023-03-22T08:07:32;21.40;26.75
67131;HTU21D;54051;53.464;49.532;2023-03-22T08:09:58;20.75;27.09
67131;HTU21D;54051;53.464;49.532;2023-03-22T08:12:24;20.86;26.81
67131;HTU21D;54051;53.464;49.532;2023-03-22T08:14:52;20.17;28.11
67131;HTU21D;54051;53.464;49.532;2023-03-22T08:17:18;19.27;29.54
67131;HTU21D;54051;53.464;49.532;2023-03-22T08:19:45;17.91;32.30
67131;HTU21D;54051;53.464;49.532;2023-03-22T08:22:11;17.28;33.70
67131;HTU21D;54051;53.464;49.532;2023-03-22T08:24:38;16.40;35.89
67131;HTU21D;54051;53.464;49.532;2023-03-22T08:27:04;14.98;38.99
67131;HTU21D;54051;53.464;49.532;2023-03-22T08:29:30;13.60;42.90
67131;HTU21D;54051;53.464;49.532;2023-03-22T08:31:57;12.56;45.86
67131;HTU21D;54051;53.464;49.532;2023-03-22T08:34:30;11.76;48.53
67131;HTU21D;54051;53.464;49.532;2023-03-22T08:36:58;11.36;49.93
67131;HTU21D;54051;53.464;49.532;2023-03-22T08:39:24;11.16;50.76
67131;HTU21D;54051;53.464;49.532;2023-03-22T08:41:50;11.05;51.18
67131;HTU21D;54051;53.464;49.532;2023-03-22T08:44:16;10.90;52.03
67131;HTU21D;54051;53.464;49.532;2023-03-22T08:46:43;11.14;51.34
67131;HTU21D;54051;53.464;49.532;2023-03-22T08:49:09;12.34;47.95
67131;HTU21D;54051;53.464;49.532;2023-03-22T08:51:35;12.96;46.18
67131;HTU21D;54051;53.464;49.532;2023-03-22T08:54:01;12.81;46.57
67131;HTU21D;54051;53.464;49.532;2023-03-22T08:56:29;12.38;48.07
67131;HTU21D;54051;53.464;49.532;2023-03-22T08:58:57;12.73;46.83
67131;HTU21D;54051;53.464;49.532;2023-03-22T09:01:23;13.55;45.00
67131;HTU21D;54051;53.464;49.532;2023-03-22T09:03:51;14.45;42.37
67131;HTU21D;54051;53.464;49.532;2023-03-22T09:06:17;14.50;42.07
67131;HTU21D;54051;53.464;49.532;2023-03-22T09:08:44;15.60;39.33
67131;HTU21D;54051;53.464;49.532;2023-03-22T09:11:11;15.74;39.00
67131;HTU21D;54051;53.464;49.532;2023-03-22T09:13:38;16.04;37.70
67131;HTU21D;54051;53.464;49.532;2023-03-22T09:16:05;16.44;36.51
67131;HTU21D;54051;53.464;49.532;2023-03-22T09:18:34;16.36;35.78
67131;HTU21D;54051;53.464;49.532;2023-03-22T09:21:01;15.66;36.88
67131;HTU21D;54051;53.464;49.532;2023-03-22T09:23:27;15.00;37.92
67131;HTU21D;54051;53.464;49.532;2023-03-22T09:25:55;14.17;40.02
67131;HTU21D;54051;53.464;49.532;2023-03-22T09:28:21;13.56;40.34
67131;HTU21D;54051;53.464;49.532;2023-03-22T09:30:48;12.90;41.26
67131;HTU21D;54051;53.464;49.532;2023-03-22T09:33:16;12.59;40.46
67131;HTU21D;54051;53.464;49.532;2023-03-22T09:35:42;12.33;41.13
67131;HTU21D;54051;53.464;49.532;2023-03-22T09:38:09;12.25;41.26
67131;HTU21D;54051;53.464;49.532;2023-03-22T09:40:40;12.01;41.72
67131;HTU21D;54051;53.464;49.532;2023-03-22T09:43:10;11.78;42.32
67131;HTU21D;54051;53.464;49.532;2023-03-22T09:45:40;11.55;42.83
67131;HTU21D;54051;53.464;49.532;2023-03-22T09:48:20;11.61;42.63
67131;HTU21D;54051;53.464;49.532;2023-03-22T09:50:53;11.62;42.64
67131;HTU21D;54051;53.464;49.532;2023-03-22T09:53:22;11.57;43.80
67131;HTU21D;54051;53.464;49.532;2023-03-22T09:56:06;11.36;44.66
67131;HTU21D;54051;53.464;49.532;2023-03-22T10:06:28;10.83;47.41
67131;HTU21D;54051;53.464;49.532;2023-03-22T10:09:29;10.93;47.40
67131;HTU21D;54051;53.464;49.532;2023-03-22T10:14:44;10.68;48.15
67131;HTU21D;54051;53.464;49.532;2023-03-22T10:17:15;10.92;47.41
67131;HTU21D;54051;53.464;49.532;2023-03-22T10:20:04;11.12;46.91
67131;HTU21D;54051;53.464;49.532;2023-03-22T10:22:36;11.05;47.41
67131;HTU21D;54051;53.464;49.532;2023-03-22T10:25:05;11.08;47.76
67131;HTU21D;54051;53.464;49.532;2023-03-22T10:27:33;11.22;47.71
67131;HTU21D;54051;53.464;49.532;2023-03-22T10:30:06;11.44;46.70
67131;HTU21D;54051;53.464;49.532;2023-03-22T10:32:43;11.55;46.15
67131;HTU21D;54051;53.464;49.532;2023-03-22T10:35:18;11.56;46.38
67131;HTU21D;54051;53.464;49.532;2023-03-22T10:37:47;11.61;45.44
67131;HTU21D;54051;53.464;49.532;2023-03-22T10:40:26;11.51;46.12
67131;HTU21D;54051;53.464;49.532;2023-03-22T10:45:41;10.96;48.67
67131;HTU21D;54051;53.464;49.532;2023-03-22T10:48:19;11.10;48.33
67131;HTU21D;54051;53.464;49.532;2023-03-22T10:50:48;11.25;47.57
67131;HTU21D;54051;53.464;49.532;2023-03-22T10:56:02;11.48;46.76
67131;HTU21D;54051;53.464;49.532;2023-03-22T10:58:30;11.58;46.40
67131;HTU21D;54051;53.464;49.532;2023-03-22T11:00:59;11.64;46.51
67131;HTU21D;54051;53.464;49.532;2023-03-22T11:06:24;11.58;46.52
67131;HTU21D;54051;53.464;49.532;2023-03-22T11:08:57;11.56;46.49
67131;HTU21D;54051;53.464;49.532;2023-03-22T11:14:11;11.48;46.61
67131;HTU21D;54051;53.464;49.532;2023-03-22T11:16:57;11.53;46.86
67131;HTU21D;54051;53.464;49.532;2023-03-22T11:19:36;11.64;46.56
67131;HTU21D;54051;53.464;49.532;2023-03-22T11:22:18;11.75;46.35
67131;HTU21D;54051;53.464;49.532;2023-03-22T11:24:45;11.78;45.99
67131;HTU21D;54051;53.464;49.532;2023-03-22T11:27:27;11.85;45.99
67131;HTU21D;54051;53.464;49.532;2023-03-22T11:29:59;12.03;44.96
67131;HTU21D;54051;53.464;49.532;2023-03-22T11:32:37;12.06;45.14
67131;HTU21D;54051;53.464;49.532;2023-03-22T11:37:43;12.37;45.03
67131;HTU21D;54051;53.464;49.532;2023-03-22T11:40:21;12.50;45.02
67131;HTU21D;54051;53.464;49.532;2023-03-22T11:42:52;12.59;44.73
67131;HTU21D;54051;53.464;49.532;2023-03-22T11:45:31;12.48;44.87
67131;HTU21D;54051;53.464;49.532;2023-03-22T11:48:07;12.44;45.04
67131;HTU21D;54051;53.464;49.532;2023-03-22T11:50:36;12.34;45.17
67131;HTU21D;54051;53.464;49.532;2023-03-22T11:53:06;12.27;45.43
67131;HTU21D;54051;53.464;49.532;2023-03-22T11:55:36;12.22;45.42
67131;HTU21D;54051;53.464;49.532;2023-03-22T11:58:04;12.23;45.51
67131;HTU21D;54051;53.464;49.532;2023-03-22T12:00:32;12.33;45.23
67131;HTU21D;54051;53.464;49.532;2023-03-22T12:03:05;12.41;45.32
67131;HTU21D;54051;53.464;49.532;2023-03-22T12:05:38;12.41;45.47
67131;HTU21D;54051;53.464;49.532;2023-03-22T12:10:49;12.48;45.25
67131;HTU21D;54051;53.464;49.532;2023-03-22T12:16:11;12.33;45.43
67131;HTU21D;54051;53.464;49.532;2023-03-22T12:19:06;12.32;45.68
67131;HTU21D;54051;53.464;49.532;2023-03-22T12:21:39;12.30;45.60
67131;HTU21D;54051;53.464;49.532;2023-03-22T12:24:24;12.29;45.80
67131;HTU21D;54051;53.464;49.532;2023-03-22T12:26:53;12.38;45.56
67131;HTU21D;54051;53.464;49.532;2023-03-22T12:29:20;12.38;45.71
67131;HTU21D;54051;53.464;49.532;2023-03-22T12:32:00;12.35;45.83
67131;HTU21D;54051;53.464;49.532;2023-03-22T12:34:40;12.32;46.35
67131;HTU21D;54051;53.464;49.532;2023-03-22T12:37:12;12.35;46.25
67131;HTU21D;54051;53.464;49.532;2023-03-22T12:39:51;12.25;46.29
67131;HTU21D;54051;53.464;49.532;2023-03-22T12:45:00;12.34;46.25
67131;HTU21D;54051;53.464;49.532;2023-03-22T12:47:42;12.35;46.17
67131;HTU21D;54051;53.464;49.532;2023-03-22T12:50:15;12.32;46.20
67131;HTU21D;54051;53.464;49.532;2023-03-22T12:52:44;12.33;46.16
67131;HTU21D;54051;53.464;49.532;2023-03-22T12:55:32;12.41;46.07
67131;HTU21D;54051;53.464;49.532;2023-03-22T12:57:59;12.43;45.78
67131;HTU21D;54051;53.464;49.532;2023-03-22T13:03:42;12.19;46.55
67131;HTU21D;54051;53.464;49.532;2023-03-22T13:09:11;11.79;47.96
67131;HTU21D;54051;53.464;49.532;2023-03-22T13:12:24;11.69;48.05
67131;HTU21D;54051;53.464;49.532;2023-03-22T13:17:41;11.73;47.97
67131;HTU21D;54051;53.464;49.532;2023-03-22T13:25:13;11.93;47.49
67131;HTU21D;54051;53.464;49.532;2023-03-22T13:28:25;11.86;47.64
67131;HTU21D;54051;53.464;49.532;2023-03-22T13:30:53;11.62;47.91
67131;HTU21D;54051;53.464;49.532;2023-03-22T13:33:28;11.34;48.85
67131;HTU21D;54051;53.464;49.532;2023-03-22T13:36:06;11.08;50.09
67131;HTU21D;54051;53.464;49.532;2023-03-22T13:38:40;11.03;50.01
67131;HTU21D;54051;53.464;49.532;2023-03-22T13:41:19;11.07;49.83
67131;HTU21D;54051;53.464;49.532;2023-03-22T13:54:15;11.24;50.15
67131;HTU21D;54051;53.464;49.532;2023-03-22T14:02:17;11.30;50.24
67131;HTU21D;54051;53.464;49.532;2023-03-22T14:07:22;11.29;50.55
67131;HTU21D;54051;53.464;49.532;2023-03-22T14:09:54;11.30;50.18
67131;HTU21D;54051;53.464;49.532;2023-03-22T14:12:30;11.22;50.56
67131;HTU21D;54051;53.464;49.532;2023-03-22T14:15:00;11.17;50.76
67131;HTU21D;54051;53.464;49.532;2023-03-22T14:17:43;11.13;50.76
67131;HTU21D;54051;53.464;49.532;2023-03-22T14:20:16;11.00;51.37
67131;HTU21D;54051;53.464;49.532;2023-03-22T14:22:56;10.89;51.47
67131;HTU21D;54051;53.464;49.532;2023-03-22T14:25:27;10.81;51.74
67131;HTU21D;54051;53.464;49.532;2023-03-22T14:27:55;10.70;52.12
67131;HTU21D;54051;53.464;49.532;2023-03-22T14:32:59;10.60;53.10
67131;HTU21D;54051;53.464;49.532;2023-03-22T14:35:53;10.60;53.10
67131;HTU21D;54051;53.464;49.532;2023-03-22T14:38:25;10.62;53.08
67131;HTU21D;54051;53.464;49.532;2023-03-22T14:41:27;10.63;53.11
67131;HTU21D;54051;53.464;49.532;2023-03-22T14:43:58;10.66;53.36
67131;HTU21D;54051;53.464;49.532;2023-03-22T14:46:33;10.65;53.28
67131;HTU21D;54051;53.464;49.532;2023-03-22T14:49:02;10.59;53.36
67131;HTU21D;54051;53.464;49.532;2023-03-22T14:51:38;10.63;53.86
67131;HTU21D;54051;53.464;49.532;2023-03-22T14:54:15;10.64;54.06
67131;HTU21D;54051;53.464;49.532;2023-03-22T14:56:44;10.60;53.76
67131;HTU21D;54051;53.464;49.532;2023-03-22T14:59:14;10.64;53.81
67131;HTU21D;54051;53.464;49.532;2023-03-22T15:01:52;10.67;53.66
67131;HTU21D;54051;53.464;49.532;2023-03-22T15:04:21;10.67;53.91
67131;HTU21D;54051;53.464;49.532;2023-03-22T15:06:53;10.72;54.06
67131;HTU21D;54051;53.464;49.532;2023-03-22T15:09:21;10.72;54.97
67131;HTU21D;54051;53.464;49.532;2023-03-22T15:11:49;10.72;55.35
67131;HTU21D;54051;53.464;49.532;2023-03-22T15:14:16;10.71;55.89
67131;HTU21D;54051;53.464;49.532;2023-03-22T15:16:46;10.66;56.28
67131;HTU21D;54051;53.464;49.532;2023-03-22T15:19:17;10.59;56.56
67131;HTU21D;54051;53.464;49.532;2023-03-22T15:21:44;10.55;56.85
67131;HTU21D;54051;53.464;49.532;2023-03-22T15:24:38;10.52;57.19
67131;HTU21D;54051;53.464;49.532;2023-03-22T15:27:10;10.49;57.44
67131;HTU21D;54051;53.464;49.532;2023-03-22T15:29:41;10.46;57.84
67131;HTU21D;54051;53.464;49.532;2023-03-22T15:32:18;10.38;58.25
67131;HTU21D;54051;53.464;49.532;2023-03-22T15:34:46;10.33;58.61
67131;HTU21D;54051;53.464;49.532;2023-03-22T15:37:31;10.28;58.89
67131;HTU21D;54051;53.464;49.532;2023-03-22T15:39:58;10.25;59.16
67131;HTU21D;54051;53.464;49.532;2023-03-22T15:42:32;10.25;59.30
67131;HTU21D;54051;53.464;49.532;2023-03-22T15:45:13;10.23;59.69
67131;HTU21D;54051;53.464;49.532;2023-03-22T15:47:58;10.22;59.70
67131;HTU21D;54051;53.464;49.532;2023-03-22T15:50:27;10.16;59.99
67131;HTU21D;54051;53.464;49.532;2023-03-22T15:52:56;10.12;60.27
67131;HTU21D;54051;53.464;49.532;2023-03-22T15:55:32;10.11;60.40
67131;HTU21D;54051;53.464;49.532;2023-03-22T15:58:01;10.13;60.43
67131;HTU21D;54051;53.464;49.532;2023-03-22T16:00:37;10.09;60.66
67131;HTU21D;54051;53.464;49.532;2023-03-22T16:05:38;10.00;61.18
67131;HTU21D;54051;53.464;49.532;2023-03-22T16:08:05;9.95;61.44
67131;HTU21D;54051;53.464;49.532;2023-03-22T16:10:33;9.96;61.54
67131;HTU21D;54051;53.464;49.532;2023-03-22T16:13:00;9.94;61.87
67131;HTU21D;54051;53.464;49.532;2023-03-22T16:15:31;9.95;61.86
67131;HTU21D;54051;53.464;49.532;2023-03-22T16:17:58;9.85;62.26
67131;HTU21D;54051;53.464;49.532;2023-03-22T16:20:26;9.83;62.41
67131;HTU21D;54051;53.464;49.532;2023-03-22T16:22:58;9.81;62.62
67131;HTU21D;54051;53.464;49.532;2023-03-22T16:25:26;9.76;62.57
67131;HTU21D;54051;53.464;49.532;2023-03-22T16:28:12;9.71;62.89
67131;HTU21D;54051;53.464;49.532;2023-03-22T16:30:40;9.76;62.79
67131;HTU21D;54051;53.464;49.532;2023-03-22T16:33:13;9.68;63.04
67131;HTU21D;54051;53.464;49.532;2023-03-22T16:35:40;9.64;63.27
67131;HTU21D;54051;53.464;49.532;2023-03-22T16:38:06;9.63;63.45
67131;HTU21D;54051;53.464;49.532;2023-03-22T16:40:33;9.54;63.90
67131;HTU21D;54051;53.464;49.532;2023-03-22T16:43:00;9.52;64.06
67131;HTU21D;54051;53.464;49.532;2023-03-22T16:45:29;9.52;64.24
67131;HTU21D;54051;53.464;49.532;2023-03-22T16:47:56;9.53;64.28
67131;HTU21D;54051;53.464;49.532;2023-03-22T16:50:24;9.49;64.63
67131;HTU21D;54051;53.464;49.532;2023-03-22T16:52:51;9.42;65.04
67131;HTU21D;54051;53.464;49.532;2023-03-22T16:55:26;9.37;65.36
67131;HTU21D;54051;53.464;49.532;2023-03-22T16:57:53;9.36;65.57
67131;HTU21D;54051;53.464;49.532;2023-03-22T17:00:19;9.31;65.85
67131;HTU21D;54051;53.464;49.532;2023-03-22T17:02:48;9.25;66.09
67131;HTU21D;54051;53.464;49.532;2023-03-22T17:05:17;9.14;66.50
67131;HTU21D;54051;53.464;49.532;2023-03-22T17:07:46;9.02;66.91
67131;HTU21D;54051;53.464;49.532;2023-03-22T17:10:13;8.98;67.22
67131;HTU21D;54051;53.464;49.532;2023-03-22T17:12:39;8.96;67.21
67131;HTU21D;54051;53.464;49.532;2023-03-22T17:15:29;8.94;67.33
67131;HTU21D;54051;53.464;49.532;2023-03-22T17:17:57;8.89;67.46
67131;HTU21D;54051;53.464;49.532;2023-03-22T17:20:25;8.89;67.27
67131;HTU21D;54051;53.464;49.532;2023-03-22T17:22:53;8.87;67.17